^^
Grace C. Lehan Memorial Weather Station Historical Data
Daily Summary for February 24, 2021 Units:  Metric    English   Both
Daily Weekly Monthly Yearly
  High: Low: Average:
Temperature: 22.2 °C 12.6 °C 17.4 °C
Dew Point: 10.6 °C 7.6 °C 8.9 °C
Humidity: 72% 41.2% 58%
Wind Speed: 3.2km/h 0km/h 0.6km/h
Wind Gust: 17.7km/h - -
Wind- - SW
Pressure: 1025.3 hPa 1018.2 hPa -
Precipitation: 0 mm    
 
 
Tabular Data for February 24, 2021
Time Temperature Dew Point Pressure Wind Wind Speed Wind Gust Humidity Rainfall Rate (Hourly) solar
00:00 17.1 °C 8.8 °C 1018.2 hPa Calm   17.7 km/h 58% 0 mm 0 W/m2
00:09 17 °C 8.9 °C 1018.2 hPa NNE 0.3 km/h 9.7 km/h 59% 0 mm 0 W/m2
00:14 16.9 °C 8.9 °C 1018.5 hPa North 0.3 km/h 9.7 km/h 59.1% 0 mm 0 W/m2
00:19 16.8 °C 8.8 °C 1018.5 hPa ENE 0.2 km/h 9.7 km/h 59.1% 0 mm 0 W/m2
00:24 16.8 °C 9 °C 1018.5 hPa Calm   9.7 km/h 60% 0 mm 0 W/m2
00:29 16.7 °C 8.9 °C 1018.5 hPa North 1.4 km/h 9.7 km/h 60% 0 mm 0 W/m2
00:34 16.7 °C 8.9 °C 1018.5 hPa NNW 0.2 km/h 9.7 km/h 60% 0 mm 0 W/m2
00:39 16.6 °C 8.9 °C 1018.8 hPa NNW 0.6 km/h 4.8 km/h 60.6% 0 mm 0 W/m2
00:44 16.5 °C 9.2 °C 1018.8 hPa NNW 1.1 km/h 6.4 km/h 61.7% 0 mm 0 W/m2
00:49 16.4 °C 9.4 °C 1018.8 hPa Calm   6.4 km/h 62.9% 0 mm 0 W/m2
00:54 16.3 °C 9.4 °C 1019.2 hPa NNW 0.5 km/h 6.4 km/h 63.6% 0 mm 0 W/m2
00:59 16.3 °C 9.7 °C 1019.2 hPa NNW 1.1 km/h 6.4 km/h 65% 0 mm 0 W/m2
01:04 16.2 °C 9.6 °C 1019.2 hPa NNW 0.8 km/h 6.4 km/h 65% 0 mm 0 W/m2
01:09 16.1 °C 9.7 °C 1019.2 hPa NNW 0.5 km/h 6.4 km/h 66% 0 mm 0 W/m2
01:14 16 °C 9.6 °C 1019.2 hPa NNW 0.8 km/h 9.7 km/h 66% 0 mm 0 W/m2
01:19 15.9 °C 9.6 °C 1019.2 hPa NNW 0.5 km/h 9.7 km/h 66% 0 mm 0 W/m2
01:24 15.8 °C 9.5 °C 1019.2 hPa NNW 1.4 km/h 9.7 km/h 66% 0 mm 0 W/m2
01:29 15.8 °C 9.4 °C 1019.2 hPa Calm   9.7 km/h 66% 0 mm 0 W/m2
01:34 15.8 °C 9.4 °C 1019.2 hPa North 0.2 km/h 9.7 km/h 66% 0 mm 0 W/m2
01:39 15.7 °C 9.4 °C 1019.2 hPa NNW 0.6 km/h 6.4 km/h 66% 0 mm 0 W/m2
01:44 15.6 °C 9.3 °C 1019.2 hPa Calm   6.4 km/h 66.1% 0 mm 0 W/m2
01:49 15.6 °C 9.3 °C 1019.2 hPa NNW 0.5 km/h 8 km/h 66.1% 0 mm 0 W/m2
01:54 15.5 °C 9.2 °C 1019.2 hPa Calm   8 km/h 66.1% 0 mm 0 W/m2
01:59 15.4 °C 9.3 °C 1019.5 hPa NNW 1.1 km/h 8 km/h 66.8% 0 mm 0 W/m2
02:04 15.3 °C 9.1 °C 1019.5 hPa NNW 1.6 km/h 14.5 km/h 66.2% 0 mm 0 W/m2
02:09 15.3 °C 9 °C 1019.5 hPa NE 0.8 km/h 14.5 km/h 66% 0 mm 0 W/m2
02:14 15.2 °C 8.9 °C 1019.5 hPa NNW 1.1 km/h 14.5 km/h 66% 0 mm 0 W/m2
02:19 15.2 °C 8.9 °C 1019.9 hPa North 0.3 km/h 14.5 km/h 66% 0 mm 0 W/m2
02:24 15.2 °C 8.8 °C 1019.9 hPa North 0.8 km/h 14.5 km/h 66% 0 mm 0 W/m2
02:29 15.1 °C 8.6 °C 1019.9 hPa NNW 1.4 km/h 14.5 km/h 65.1% 0 mm 0 W/m2
02:34 15.1 °C 8.6 °C 1019.9 hPa North 2.4 km/h 14.5 km/h 65.3% 0 mm 0 W/m2
02:39 15 °C 8.5 °C 1019.9 hPa North 1 km/h 8 km/h 65% 0 mm 0 W/m2
02:44 15 °C 8.6 °C 1019.9 hPa North 0.6 km/h 8 km/h 65.3% 0 mm 0 W/m2
02:49 14.9 °C 8.7 °C 1019.9 hPa NNE 0.3 km/h 8 km/h 66% 0 mm 0 W/m2
02:54 14.9 °C 8.6 °C 1019.9 hPa NNE 0.3 km/h 8 km/h 66% 0 mm 0 W/m2
02:59 14.8 °C 8.5 °C 1020.2 hPa NW 1.1 km/h 8 km/h 66% 0 mm 0 W/m2
03:04 14.7 °C 8.4 °C 1020.2 hPa NNW 1.8 km/h 8 km/h 66% 0 mm 0 W/m2
03:09 14.6 °C 8.3 °C 1020.2 hPa NNW 0.5 km/h 8 km/h 66% 0 mm 0 W/m2
03:14 14.6 °C 8.3 °C 1020.2 hPa NNW 1.4 km/h 9.7 km/h 66% 0 mm 0 W/m2
03:19 14.5 °C 8.3 °C 1020.2 hPa NW 0.2 km/h 9.7 km/h 66.5% 0 mm 0 W/m2
03:24 14.4 °C 8.2 °C 1020.5 hPa North 0.6 km/h 9.7 km/h 66.5% 0 mm 0 W/m2
03:29 14.3 °C 8.2 °C 1020.5 hPa NE 0.3 km/h 9.7 km/h 66.8% 0 mm 0 W/m2
03:34 14.3 °C 8.2 °C 1020.5 hPa NNW 0.3 km/h 9.7 km/h 66.7% 0 mm 0 W/m2
03:39 14.2 °C 8.2 °C 1020.9 hPa NNW 0.5 km/h 9.7 km/h 67% 0 mm 0 W/m2
03:44 14.1 °C 8.1 °C 1020.9 hPa NNW 0.3 km/h 9.7 km/h 67% 0 mm 0 W/m2
03:49 14.1 °C 8 °C 1020.9 hPa NNW 0.2 km/h 9.7 km/h 67% 0 mm 0 W/m2
03:54 13.9 °C 8 °C 1020.9 hPa NNW 0.2 km/h 9.7 km/h 67.4% 0 mm 0 W/m2
03:59 13.9 °C 8 °C 1020.9 hPa Calm   9.7 km/h 67.7% 0 mm 0 W/m2
04:00 13.8 °C 8.1 °C 1020.9 hPa Calm   9.7 km/h 68% 0 mm 0 W/m2
04:09 13.7 °C 7.9 °C 1020.9 hPa North 0.2 km/h 3.2 km/h 68% 0 mm 0 W/m2
04:14 13.7 °C 8 °C 1020.9 hPa North 0.2 km/h 3.2 km/h 68.8% 0 mm 0 W/m2
04:19 13.6 °C 7.9 °C 1020.9 hPa North 0.2 km/h 3.2 km/h 69% 0 mm 0 W/m2
04:24 13.4 °C 7.9 °C 1021.2 hPa Calm   3.2 km/h 69.4% 0 mm 0 W/m2
04:29 13.3 °C 8 °C 1021.2 hPa North 0.8 km/h 4.8 km/h 70% 0 mm 0 W/m2
04:34 13.3 °C 7.9 °C 1021.2 hPa Calm   4.8 km/h 70% 0 mm 0 W/m2
04:39 13.2 °C 7.9 °C 1021.2 hPa Calm   1.6 km/h 70.3% 0 mm 0 W/m2
04:44 13.1 °C 8 °C 1021.2 hPa Calm   1.6 km/h 71% 0 mm 0 W/m2
04:49 13.1 °C 7.9 °C 1021.2 hPa North 0.2 km/h 3.2 km/h 71% 0 mm 0 W/m2
04:54 13 °C 7.9 °C 1021.2 hPa Calm   3.2 km/h 71% 0 mm 0 W/m2
04:59 12.9 °C 7.8 °C 1021.6 hPa Calm   3.2 km/h 71% 0 mm 0 W/m2
05:04 12.9 °C 7.8 °C 1021.6 hPa Calm   3.2 km/h 71% 0 mm 0 W/m2
05:09 12.9 °C 7.7 °C 1021.6 hPa Calm     71% 0 mm 0 W/m2
05:14 12.8 °C 7.8 °C 1021.6 hPa Calm     71.3% 0 mm 0 W/m2
05:19 12.8 °C 7.8 °C 1021.6 hPa Calm     72% 0 mm 0 W/m2
05:24 12.7 °C 7.8 °C 1021.9 hPa Calm     72% 0 mm 0 W/m2
05:29 12.7 °C 7.8 °C 1021.9 hPa Calm     72% 0 mm 7 W/m2
05:34 12.6 °C 7.7 °C 1021.9 hPa Calm     72% 0 mm 11 W/m2
05:39 12.6 °C 7.7 °C 1021.9 hPa Calm     72% 0 mm 11 W/m2
05:44 12.6 °C 7.7 °C 1021.9 hPa North 0.2 km/h 3.2 km/h 72% 0 mm 12 W/m2
05:49 12.6 °C 7.7 °C 1022.2 hPa Calm   3.2 km/h 72% 0 mm 21 W/m2
05:54 12.6 °C 7.7 °C 1022.2 hPa Calm   3.2 km/h 72% 0 mm 28 W/m2
05:59 12.6 °C 7.7 °C 1022.2 hPa Calm   3.2 km/h 72% 0 mm 30 W/m2
06:04 12.6 °C 7.7 °C 1022.2 hPa North 0.6 km/h 4.8 km/h 72% 0 mm 35 W/m2
06:09 12.7 °C 7.8 °C 1022.2 hPa North 0.8 km/h 6.4 km/h 72% 0 mm 37 W/m2
06:14 12.8 °C 7.8 °C 1022.6 hPa Calm   6.4 km/h 71.6% 0 mm 37 W/m2
06:19 12.8 °C 7.7 °C 1022.6 hPa North 0.5 km/h 8 km/h 71.2% 0 mm 40 W/m2
06:24 12.9 °C 7.8 °C 1022.6 hPa Calm   8 km/h 71% 0 mm 40 W/m2
06:29 13 °C 7.7 °C 1022.6 hPa Calm   8 km/h 70.2% 0 mm 39 W/m2
06:34 13.1 °C 7.7 °C 1022.9 hPa Calm   8 km/h 69.9% 0 mm 42 W/m2
06:39 13.1 °C 7.6 °C 1023.2 hPa NNW 0.8 km/h 6.4 km/h 69.2% 0 mm 44 W/m2
06:44 13.1 °C 7.7 °C 1023.2 hPa ENE 0.6 km/h 6.4 km/h 69.5% 0 mm 53 W/m2
06:49 13.2 °C 7.7 °C 1023.2 hPa ENE 0.8 km/h 6.4 km/h 69.1% 0 mm 100 W/m2
06:54 13.3 °C 8.1 °C 1023.6 hPa Calm   6.4 km/h 70.1% 0 mm 100 W/m2
06:59 13.6 °C 8.1 °C 1023.6 hPa ENE 1 km/h 8 km/h 69.2% 0 mm 90 W/m2
07:04 13.8 °C 8.1 °C 1023.9 hPa Calm   8 km/h 68.3% 0 mm 86 W/m2
07:09 13.8 °C 8.1 °C 1023.9 hPa Calm   1.6 km/h 68.4% 0 mm 90 W/m2
07:14 13.9 °C 8.1 °C 1023.9 hPa NNE 0.6 km/h 6.4 km/h 68.2% 0 mm 202 W/m2
07:19 14.1 °C 8.4 °C 1023.9 hPa NNE 0.3 km/h 6.4 km/h 68.7% 0 mm 352 W/m2
07:24 14.6 °C 8.8 °C 1023.9 hPa East 1.3 km/h 8 km/h 68.1% 0 mm 360 W/m2
07:29 15 °C 8.6 °C 1023.9 hPa ENE 1.1 km/h 9.7 km/h 65.5% 0 mm 385 W/m2
07:34 15.4 °C 9 °C 1024.3 hPa NE 0.2 km/h 9.7 km/h 65.6% 0 mm 387 W/m2
07:39 15.8 °C 8.8 °C 1024.3 hPa ENE 2.4 km/h 9.7 km/h 63.2% 0 mm 330 W/m2
07:44 15.9 °C 8.7 °C 1024.3 hPa ENE 0.6 km/h 9.7 km/h 61.8% 0 mm 410 W/m2
07:49 16.1 °C 8.9 °C 1024.3 hPa Calm   9.7 km/h 62.4% 0 mm 452 W/m2
07:54 16.4 °C 9.4 °C 1024.3 hPa ENE 0.2 km/h 9.7 km/h 63.3% 0 mm 480 W/m2
07:59 16.9 °C 9.4 °C 1024.3 hPa NE 0.2 km/h 9.7 km/h 61.6% 0 mm 482 W/m2
08:00 17.1 °C 9 °C 1024.3 hPa Calm   9.7 km/h 59% 0 mm 443 W/m2
08:09 17.1 °C 9.1 °C 1024.3 hPa Calm     59.1% 0 mm 207 W/m2
08:14 17 °C 9.1 °C 1024.6 hPa ENE 0.8 km/h 6.4 km/h 59.3% 0 mm 199 W/m2
08:19 16.9 °C 9.1 °C 1024.6 hPa Calm   6.4 km/h 60% 0 mm 383 W/m2
08:24 16.9 °C 8.8 °C 1024.6 hPa Calm   6.4 km/h 58.9% 0 mm 559 W/m2
08:29 16.9 °C 8.8 °C 1024.6 hPa Calm   6.4 km/h 58.9% 0 mm 559 W/m2
08:34 16.9 °C 9 °C 1024.6 hPa Calm   6.4 km/h 59.5% 0 mm 336 W/m2
08:39 16.9 °C 8.5 °C 1024.9 hPa Calm     57.4% 0 mm 288 W/m2
08:44 16.9 °C 8.8 °C 1024.9 hPa Calm   1.6 km/h 58.6% 0 mm 536 W/m2
08:49 16.9 °C 9 °C 1024.9 hPa Calm   1.6 km/h 59.4% 0 mm 536 W/m2
08:54 17.1 °C 9.3 °C 1025.3 hPa ENE 0.3 km/h 4.8 km/h 59.8% 0 mm 663 W/m2
08:59 17.6 °C 9.4 °C 1025.3 hPa South 0.3 km/h 6.4 km/h 58.7% 0 mm 527 W/m2
09:04 18.1 °C 10 °C 1025.3 hPa Calm   6.4 km/h 59.2% 0 mm 719 W/m2
09:09 18.7 °C 10.1 °C 1025.3 hPa Calm   1.6 km/h 57.6% 0 mm 719 W/m2
09:14 19 °C 10 °C 1024.9 hPa South 0.5 km/h 8 km/h 55.8% 0 mm 703 W/m2
09:19 19 °C 9.4 °C 1024.9 hPa South 0.3 km/h 8 km/h 54% 0 mm 679 W/m2
09:24 18.9 °C 9.7 °C 1024.9 hPa Calm   8 km/h 55.1% 0 mm 791 W/m2
09:29 19.2 °C 10.3 °C 1024.9 hPa Calm   8 km/h 56.5% 0 mm 779 W/m2
09:34 19.7 °C 10.6 °C 1024.9 hPa Calm   8 km/h 55.5% 0 mm 817 W/m2
09:39 20.1 °C 10.3 °C 1024.9 hPa SSE 0.5 km/h 4.8 km/h 53.4% 0 mm 817 W/m2
09:44 19.9 °C 9 °C 1024.9 hPa SSE 0.2 km/h 4.8 km/h 49.2% 0 mm 809 W/m2
09:49 19.7 °C 9.3 °C 1024.9 hPa Calm   4.8 km/h 51.2% 0 mm 838 W/m2
09:54 19.8 °C 9.9 °C 1024.9 hPa Calm   4.8 km/h 53.1% 0 mm 838 W/m2
09:59 19.8 °C 10 °C 1024.9 hPa Calm   4.8 km/h 53.1% 0 mm 362 W/m2
10:04 19.6 °C 10.2 °C 1024.9 hPa Calm   4.8 km/h 54.3% 0 mm 362 W/m2
10:09 19.6 °C 10.4 °C 1024.9 hPa SSE 0.2 km/h 3.2 km/h 55.3% 0 mm 858 W/m2
10:14 19.8 °C 10.6 °C 1024.9 hPa South 1 km/h 6.4 km/h 55.3% 0 mm 831 W/m2
10:19 20.2 °C 10.6 °C 1024.9 hPa Calm   6.4 km/h 54% 0 mm 872 W/m2
10:24 20.3 °C 9.9 °C 1024.9 hPa Calm   6.4 km/h 51.3% 0 mm 958 W/m2
10:29 20.4 °C 9.7 °C 1024.9 hPa South 0.2 km/h 6.4 km/h 50.2% 0 mm 969 W/m2
10:34 20.4 °C 9.8 °C 1024.9 hPa SSW 0.3 km/h 6.4 km/h 50.4% 0 mm 960 W/m2
10:39 20.4 °C 9.8 °C 1024.9 hPa SSW 0.2 km/h 4.8 km/h 50.6% 0 mm 935 W/m2
10:44 20.3 °C 9.5 °C 1025.3 hPa Calm   4.8 km/h 49.8% 0 mm 394 W/m2
10:49 19.9 °C 9.3 °C 1025.3 hPa Calm   4.8 km/h 50.4% 0 mm 469 W/m2
10:54 19.8 °C 9.7 °C 1025.3 hPa Calm   4.8 km/h 52.2% 0 mm 1160 W/m2
10:59 20.1 °C 10.3 °C 1025.3 hPa SW 0.6 km/h 8 km/h 53.2% 0 mm 810 W/m2
11:04 20.4 °C 9.9 °C 1025.3 hPa SW 1.1 km/h 8 km/h 50.9% 0 mm 810 W/m2
11:09 20.8 °C 10.2 °C 1025.3 hPa Calm   6.4 km/h 50.7% 0 mm 810 W/m2
11:14 21.1 °C 9.9 °C 1024.9 hPa Calm   6.4 km/h 48.8% 0 mm 524 W/m2
11:19 21.3 °C 9.9 °C 1024.9 hPa SW 0.3 km/h 6.4 km/h 48.3% 0 mm 761 W/m2
11:24 21.3 °C 8.9 °C 1024.9 hPa SW 0.5 km/h 6.4 km/h 45% 0 mm 761 W/m2
11:29 21.1 °C 8.7 °C 1024.9 hPa SW 0.3 km/h 6.4 km/h 44.9% 0 mm 571 W/m2
11:34 20.7 °C 9.1 °C 1024.9 hPa SSE 1 km/h 6.4 km/h 47.2% 0 mm 506 W/m2
11:39 20.4 °C 8.9 °C 1024.9 hPa SSE 0.6 km/h 6.4 km/h 47.7% 0 mm 1241 W/m2
11:44 20.4 °C 9.8 °C 1024.9 hPa SSE 1 km/h 6.4 km/h 50.4% 0 mm 1178 W/m2
11:49 20.7 °C 8.9 °C 1024.9 hPa SE 0.2 km/h 6.4 km/h 47% 0 mm 1178 W/m2
11:54 20.5 °C 8.8 °C 1024.9 hPa Calm   6.4 km/h 47% 0 mm 371 W/m2
11:59 20.3 °C 9.3 °C 1024.9 hPa SSE 0.6 km/h 9.7 km/h 48.9% 0 mm 599 W/m2
12:04 20.3 °C 9.6 °C 1024.6 hPa Calm   9.7 km/h 50% 0 mm 599 W/m2
12:09 20.3 °C 9.8 °C 1024.9 hPa SW 0.3 km/h 8 km/h 50.7% 0 mm 944 W/m2
12:14 20.3 °C 9.3 °C 1024.6 hPa South 1.9 km/h 8 km/h 49.4% 0 mm 1083 W/m2
12:19 20.1 °C 9.3 °C 1024.9 hPa South 0.2 km/h 8 km/h 49.8% 0 mm 1058 W/m2
12:24 20.2 °C 10.2 °C 1024.9 hPa South 0.3 km/h 8 km/h 52.5% 0 mm 1172 W/m2
12:29 20.5 °C 9.7 °C 1024.6 hPa SSW 0.8 km/h 8 km/h 50% 0 mm 1042 W/m2
12:34 20.6 °C 9.1 °C 1024.6 hPa SSW 0.2 km/h 8 km/h 47.8% 0 mm 392 W/m2
12:39 20.3 °C 9.7 °C 1024.6 hPa South 0.2 km/h 3.2 km/h 50.3% 0 mm 1072 W/m2
12:44 20.5 °C 10.3 °C 1024.3 hPa SSW 1 km/h 8 km/h 52% 0 mm 1072 W/m2
12:49 20.9 °C 10.3 °C 1024.3 hPa WSW 1.8 km/h 8 km/h 50.4% 0 mm 1000 W/m2
12:54 21.4 °C 9.7 °C 1024.3 hPa WSW 0.8 km/h 9.7 km/h 47.1% 0 mm 1013 W/m2
12:59 21.4 °C 9.3 °C 1024.3 hPa WSW 0.5 km/h 9.7 km/h 46.1% 0 mm 1238 W/m2
13:04 21.5 °C 10.2 °C 1024.3 hPa West 0.6 km/h 9.7 km/h 48.5% 0 mm 1150 W/m2
13:09 21.6 °C 9.4 °C 1024.3 hPa WSW 2.3 km/h 16.1 km/h 45.8% 0 mm 390 W/m2
13:14 21.4 °C 9.7 °C 1024.3 hPa SW 1.1 km/h 16.1 km/h 47% 0 mm 427 W/m2
13:19 21.5 °C 9.7 °C 1024.3 hPa SW 1.3 km/h 16.1 km/h 46.9% 0 mm 1318 W/m2
13:24 21.7 °C 9.4 °C 1024.3 hPa WSW 3.2 km/h 16.1 km/h 45.8% 0 mm 1318 W/m2
13:29 21.7 °C 9.2 °C 1024.3 hPa WSW 2.1 km/h 16.1 km/h 44.8% 0 mm 436 W/m2
13:34 21.6 °C 9 °C 1023.9 hPa SW 2.3 km/h 16.1 km/h 44.7% 0 mm 1236 W/m2
13:39 21.7 °C 9.2 °C 1023.9 hPa SW 2.7 km/h 11.3 km/h 45% 0 mm 1262 W/m2
13:44 21.9 °C 8.8 °C 1023.9 hPa SSW 1.6 km/h 11.3 km/h 43.3% 0 mm 1160 W/m2
13:49 21.8 °C 8.8 °C 1023.9 hPa SW 1.3 km/h 11.3 km/h 43.3% 0 mm 1120 W/m2
13:54 21.8 °C 8.9 °C 1023.9 hPa WSW 0.6 km/h 11.3 km/h 43.6% 0 mm 1067 W/m2
13:59 21.9 °C 8.8 °C 1023.6 hPa WSW 1 km/h 11.3 km/h 43.1% 0 mm 1044 W/m2
14:04 22.1 °C 9.1 °C 1023.6 hPa SW 1 km/h 11.3 km/h 43.6% 0 mm 1074 W/m2
14:09 22.2 °C 9 °C 1023.6 hPa SW 1 km/h 8 km/h 43% 0 mm 1099 W/m2
14:14 22.1 °C 8.6 °C 1023.9 hPa SW 2.4 km/h 14.5 km/h 42% 0 mm 1099 W/m2
14:19 22 °C 8.2 °C 1023.6 hPa South 0.8 km/h 14.5 km/h 41.2% 0 mm 513 W/m2
14:24 21.8 °C 8.3 °C 1023.6 hPa ESE 1 km/h 14.5 km/h 41.9% 0 mm 629 W/m2
14:29 21.5 °C 8.4 °C 1023.6 hPa ESE 0.6 km/h 14.5 km/h 43% 0 mm 1085 W/m2
14:34 21.4 °C 8.7 °C 1023.6 hPa South 0.3 km/h 14.5 km/h 44.1% 0 mm 1129 W/m2
14:39 21.4 °C 8.3 °C 1023.6 hPa SSW 0.8 km/h 6.4 km/h 42.9% 0 mm 1129 W/m2
14:44 21.4 °C 8.4 °C 1023.6 hPa SW 0.5 km/h 6.4 km/h 43.4% 0 mm 1123 W/m2
14:49 21.3 °C 8.1 °C 1023.6 hPa South 1.6 km/h 8 km/h 42.5% 0 mm 1123 W/m2
14:54 21.2 °C 8.1 °C 1023.2 hPa South 0.6 km/h 8 km/h 43.1% 0 mm 1049 W/m2
14:59 21.1 °C 8.2 °C 1023.2 hPa South 0.8 km/h 8 km/h 43.3% 0 mm 958 W/m2
15:04 21 °C 8.2 °C 1023.2 hPa South 1 km/h 8 km/h 43.9% 0 mm 1002 W/m2
15:09 21.1 °C 8.8 °C 1023.2 hPa SSW 1.3 km/h 8 km/h 45.3% 0 mm 1002 W/m2
15:14 21.3 °C 8.3 °C 1023.2 hPa SSW 2.1 km/h 8 km/h 43.3% 0 mm 932 W/m2
15:19 21.4 °C 8.3 °C 1023.2 hPa SSW 0.3 km/h 8 km/h 43% 0 mm 886 W/m2
15:24 21.4 °C 8.6 °C 1023.2 hPa South 1.3 km/h 8 km/h 43.9% 0 mm 886 W/m2
15:29 21.6 °C 8.9 °C 1023.2 hPa SW 2.7 km/h 16.1 km/h 44.4% 0 mm 854 W/m2
15:34 21.8 °C 8.7 °C 1023.2 hPa WSW 1.6 km/h 16.1 km/h 43.2% 0 mm 833 W/m2
15:39 21.7 °C 8.6 °C 1022.9 hPa SSW 1.1 km/h 16.1 km/h 43% 0 mm 828 W/m2
15:44 21.6 °C 8.7 °C 1022.9 hPa South 0.5 km/h 16.1 km/h 43.6% 0 mm 858 W/m2
15:49 21.7 °C 9.1 °C 1022.9 hPa SSW 1.6 km/h 16.1 km/h 44.6% 0 mm 824 W/m2
15:54 21.8 °C 9.2 °C 1022.9 hPa SW 1.3 km/h 16.1 km/h 44.6% 0 mm 912 W/m2
15:59 21.9 °C 8.9 °C 1022.9 hPa WSW 1.4 km/h 16.1 km/h 43.3% 0 mm 865 W/m2
16:00 21.9 °C 8.8 °C 1022.9 hPa Calm   16.1 km/h 43% 0 mm 865 W/m2
Hartford County Weather
Compliments of Weather Underground - 2 mb